sensor_id;sensor_type;location;lat;lon;timestamp;P1;durP1;ratioP1;P2;durP2;ratioP2
71570;SDS011;59407;42.682;23.322;2023-08-31T00:00:41;3.25;;;1.00;;
71570;SDS011;59407;42.682;23.322;2023-08-31T00:03:07;4.30;;;1.23;;
71570;SDS011;59407;42.682;23.322;2023-08-31T00:05:45;3.50;;;1.03;;
71570;SDS011;59407;42.682;23.322;2023-08-31T00:08:11;3.55;;;1.20;;
71570;SDS011;59407;42.682;23.322;2023-08-31T00:10:37;3.88;;;0.80;;
71570;SDS011;59407;42.682;23.322;2023-08-31T00:13:05;5.57;;;1.10;;
71570;SDS011;59407;42.682;23.322;2023-08-31T00:15:33;3.33;;;1.30;;
71570;SDS011;59407;42.682;23.322;2023-08-31T00:18:00;4.70;;;1.15;;
71570;SDS011;59407;42.682;23.322;2023-08-31T00:20:28;3.08;;;0.95;;
71570;SDS011;59407;42.682;23.322;2023-08-31T00:22:55;4.43;;;1.15;;
71570;SDS011;59407;42.682;23.322;2023-08-31T00:25:23;3.55;;;1.10;;
71570;SDS011;59407;42.682;23.322;2023-08-31T00:27:48;3.60;;;1.17;;
71570;SDS011;59407;42.682;23.322;2023-08-31T00:30:14;3.93;;;1.07;;
71570;SDS011;59407;42.682;23.322;2023-08-31T00:32:41;3.40;;;1.23;;
71570;SDS011;59407;42.682;23.322;2023-08-31T00:35:08;3.58;;;1.25;;
71570;SDS011;59407;42.682;23.322;2023-08-31T00:37:34;4.43;;;1.00;;
71570;SDS011;59407;42.682;23.322;2023-08-31T00:40:00;3.35;;;0.93;;
71570;SDS011;59407;42.682;23.322;2023-08-31T00:42:26;4.60;;;1.20;;
71570;SDS011;59407;42.682;23.322;2023-08-31T00:44:54;2.97;;;0.88;;
71570;SDS011;59407;42.682;23.322;2023-08-31T00:47:20;2.65;;;1.00;;
71570;SDS011;59407;42.682;23.322;2023-08-31T00:49:46;5.93;;;1.23;;
71570;SDS011;59407;42.682;23.322;2023-08-31T00:52:12;5.25;;;1.13;;
71570;SDS011;59407;42.682;23.322;2023-08-31T00:54:38;4.70;;;1.20;;
71570;SDS011;59407;42.682;23.322;2023-08-31T00:57:07;4.20;;;1.13;;
71570;SDS011;59407;42.682;23.322;2023-08-31T00:59:34;2.42;;;0.93;;
71570;SDS011;59407;42.682;23.322;2023-08-31T01:02:12;3.67;;;1.20;;
71570;SDS011;59407;42.682;23.322;2023-08-31T01:11:06;3.55;;;1.33;;
71570;SDS011;59407;42.682;23.322;2023-08-31T01:13:38;2.35;;;0.80;;
71570;SDS011;59407;42.682;23.322;2023-08-31T01:16:06;3.60;;;1.20;;
71570;SDS011;59407;42.682;23.322;2023-08-31T01:18:33;2.65;;;0.90;;
71570;SDS011;59407;42.682;23.322;2023-08-31T01:23:54;3.47;;;0.90;;
71570;SDS011;59407;42.682;23.322;2023-08-31T01:26:21;2.90;;;0.90;;
71570;SDS011;59407;42.682;23.322;2023-08-31T01:28:47;4.03;;;0.73;;
71570;SDS011;59407;42.682;23.322;2023-08-31T01:31:14;3.63;;;1.00;;
71570;SDS011;59407;42.682;23.322;2023-08-31T01:33:40;4.50;;;0.98;;
71570;SDS011;59407;42.682;23.322;2023-08-31T01:36:08;3.50;;;0.87;;
71570;SDS011;59407;42.682;23.322;2023-08-31T01:38:39;4.97;;;1.30;;
71570;SDS011;59407;42.682;23.322;2023-08-31T01:41:10;7.00;;;1.40;;
71570;SDS011;59407;42.682;23.322;2023-08-31T01:43:40;3.72;;;0.93;;
71570;SDS011;59407;42.682;23.322;2023-08-31T01:46:07;3.33;;;1.10;;
71570;SDS011;59407;42.682;23.322;2023-08-31T01:48:37;3.47;;;1.10;;
71570;SDS011;59407;42.682;23.322;2023-08-31T01:51:06;5.43;;;1.42;;
71570;SDS011;59407;42.682;23.322;2023-08-31T01:53:32;2.95;;;1.00;;
71570;SDS011;59407;42.682;23.322;2023-08-31T01:55:58;3.33;;;1.30;;
71570;SDS011;59407;42.682;23.322;2023-08-31T01:58:23;3.33;;;0.80;;
71570;SDS011;59407;42.682;23.322;2023-08-31T02:00:49;4.20;;;1.27;;
71570;SDS011;59407;42.682;23.322;2023-08-31T02:03:15;4.75;;;1.27;;
71570;SDS011;59407;42.682;23.322;2023-08-31T02:05:42;4.45;;;1.20;;
71570;SDS011;59407;42.682;23.322;2023-08-31T02:08:09;3.47;;;1.30;;
71570;SDS011;59407;42.682;23.322;2023-08-31T02:10:35;3.10;;;1.03;;
71570;SDS011;59407;42.682;23.322;2023-08-31T02:13:01;4.22;;;1.08;;
71570;SDS011;59407;42.682;23.322;2023-08-31T02:15:28;4.07;;;1.02;;
71570;SDS011;59407;42.682;23.322;2023-08-31T02:17:54;4.40;;;1.10;;
71570;SDS011;59407;42.682;23.322;2023-08-31T02:20:20;4.07;;;1.10;;
71570;SDS011;59407;42.682;23.322;2023-08-31T02:22:46;4.60;;;1.35;;
71570;SDS011;59407;42.682;23.322;2023-08-31T02:25:11;5.83;;;1.10;;
71570;SDS011;59407;42.682;23.322;2023-08-31T02:27:39;3.47;;;1.20;;
71570;SDS011;59407;42.682;23.322;2023-08-31T02:30:05;3.03;;;1.00;;
71570;SDS011;59407;42.682;23.322;2023-08-31T02:32:32;3.63;;;1.00;;
71570;SDS011;59407;42.682;23.322;2023-08-31T02:34:58;2.53;;;0.80;;
71570;SDS011;59407;42.682;23.322;2023-08-31T02:37:23;3.03;;;0.90;;
71570;SDS011;59407;42.682;23.322;2023-08-31T02:39:49;3.17;;;1.05;;
71570;SDS011;59407;42.682;23.322;2023-08-31T02:42:15;4.55;;;1.17;;
71570;SDS011;59407;42.682;23.322;2023-08-31T02:44:51;3.97;;;1.03;;
71570;SDS011;59407;42.682;23.322;2023-08-31T02:47:17;3.28;;;0.82;;
71570;SDS011;59407;42.682;23.322;2023-08-31T02:49:43;3.67;;;1.20;;
71570;SDS011;59407;42.682;23.322;2023-08-31T02:52:09;3.88;;;1.40;;
71570;SDS011;59407;42.682;23.322;2023-08-31T02:54:35;3.80;;;1.35;;
71570;SDS011;59407;42.682;23.322;2023-08-31T02:57:02;4.07;;;1.27;;
71570;SDS011;59407;42.682;23.322;2023-08-31T02:59:28;3.25;;;1.23;;
71570;SDS011;59407;42.682;23.322;2023-08-31T03:01:56;2.65;;;1.00;;
71570;SDS011;59407;42.682;23.322;2023-08-31T03:04:22;3.77;;;1.27;;
71570;SDS011;59407;42.682;23.322;2023-08-31T03:06:48;4.70;;;1.92;;
71570;SDS011;59407;42.682;23.322;2023-08-31T03:09:13;5.17;;;1.30;;
71570;SDS011;59407;42.682;23.322;2023-08-31T03:11:39;4.37;;;1.20;;
71570;SDS011;59407;42.682;23.322;2023-08-31T03:14:04;5.47;;;1.10;;
71570;SDS011;59407;42.682;23.322;2023-08-31T03:16:30;3.97;;;1.50;;
71570;SDS011;59407;42.682;23.322;2023-08-31T03:18:57;4.17;;;1.13;;
71570;SDS011;59407;42.682;23.322;2023-08-31T03:21:22;4.68;;;1.40;;
71570;SDS011;59407;42.682;23.322;2023-08-31T03:23:48;5.93;;;1.75;;
71570;SDS011;59407;42.682;23.322;2023-08-31T03:26:15;4.30;;;1.00;;
71570;SDS011;59407;42.682;23.322;2023-08-31T03:28:40;4.10;;;1.38;;
71570;SDS011;59407;42.682;23.322;2023-08-31T03:31:05;4.67;;;2.07;;
71570;SDS011;59407;42.682;23.322;2023-08-31T03:33:32;3.40;;;1.40;;
71570;SDS011;59407;42.682;23.322;2023-08-31T03:36:02;6.22;;;1.77;;
71570;SDS011;59407;42.682;23.322;2023-08-31T03:38:29;3.83;;;1.92;;
71570;SDS011;59407;42.682;23.322;2023-08-31T03:41:02;3.97;;;1.48;;
71570;SDS011;59407;42.682;23.322;2023-08-31T03:43:29;3.97;;;1.47;;
71570;SDS011;59407;42.682;23.322;2023-08-31T03:45:58;3.70;;;1.58;;
71570;SDS011;59407;42.682;23.322;2023-08-31T03:48:25;4.97;;;1.83;;
71570;SDS011;59407;42.682;23.322;2023-08-31T03:50:52;6.22;;;2.80;;
71570;SDS011;59407;42.682;23.322;2023-08-31T03:53:18;6.68;;;2.20;;
71570;SDS011;59407;42.682;23.322;2023-08-31T03:55:44;6.87;;;2.40;;
71570;SDS011;59407;42.682;23.322;2023-08-31T03:58:12;6.50;;;2.47;;
71570;SDS011;59407;42.682;23.322;2023-08-31T04:00:38;6.47;;;2.25;;
71570;SDS011;59407;42.682;23.322;2023-08-31T04:03:05;5.07;;;2.53;;
71570;SDS011;59407;42.682;23.322;2023-08-31T04:05:34;8.68;;;2.58;;
71570;SDS011;59407;42.682;23.322;2023-08-31T04:08:01;4.65;;;2.00;;
71570;SDS011;59407;42.682;23.322;2023-08-31T04:10:31;6.60;;;2.03;;
71570;SDS011;59407;42.682;23.322;2023-08-31T04:12:58;4.93;;;1.97;;
71570;SDS011;59407;42.682;23.322;2023-08-31T04:15:23;7.60;;;1.98;;
71570;SDS011;59407;42.682;23.322;2023-08-31T04:17:50;4.67;;;1.80;;
71570;SDS011;59407;42.682;23.322;2023-08-31T04:20:16;5.28;;;1.90;;
71570;SDS011;59407;42.682;23.322;2023-08-31T04:22:42;3.60;;;2.10;;
71570;SDS011;59407;42.682;23.322;2023-08-31T04:25:07;6.23;;;2.20;;
71570;SDS011;59407;42.682;23.322;2023-08-31T04:27:33;4.50;;;2.23;;
71570;SDS011;59407;42.682;23.322;2023-08-31T04:29:59;4.43;;;2.00;;
71570;SDS011;59407;42.682;23.322;2023-08-31T04:32:25;4.22;;;1.73;;
71570;SDS011;59407;42.682;23.322;2023-08-31T04:34:52;6.97;;;2.10;;
71570;SDS011;59407;42.682;23.322;2023-08-31T04:37:18;7.53;;;1.88;;
71570;SDS011;59407;42.682;23.322;2023-08-31T04:39:46;5.70;;;2.17;;
71570;SDS011;59407;42.682;23.322;2023-08-31T04:42:12;7.57;;;2.10;;
71570;SDS011;59407;42.682;23.322;2023-08-31T04:44:38;4.50;;;2.22;;
71570;SDS011;59407;42.682;23.322;2023-08-31T04:47:05;7.05;;;2.20;;
71570;SDS011;59407;42.682;23.322;2023-08-31T04:49:31;5.63;;;2.47;;
71570;SDS011;59407;42.682;23.322;2023-08-31T04:51:56;6.05;;;2.13;;
71570;SDS011;59407;42.682;23.322;2023-08-31T04:54:22;3.90;;;2.10;;
71570;SDS011;59407;42.682;23.322;2023-08-31T04:56:48;5.07;;;2.58;;
71570;SDS011;59407;42.682;23.322;2023-08-31T04:59:14;5.73;;;2.53;;
71570;SDS011;59407;42.682;23.322;2023-08-31T05:01:40;3.88;;;2.00;;
71570;SDS011;59407;42.682;23.322;2023-08-31T05:04:07;4.78;;;2.10;;
71570;SDS011;59407;42.682;23.322;2023-08-31T05:06:33;3.78;;;1.80;;
71570;SDS011;59407;42.682;23.322;2023-08-31T05:09:01;7.60;;;2.40;;
71570;SDS011;59407;42.682;23.322;2023-08-31T05:11:27;6.53;;;2.13;;
71570;SDS011;59407;42.682;23.322;2023-08-31T05:13:54;4.38;;;1.95;;
71570;SDS011;59407;42.682;23.322;2023-08-31T05:16:19;7.40;;;2.00;;
71570;SDS011;59407;42.682;23.322;2023-08-31T05:18:45;5.95;;;2.30;;
71570;SDS011;59407;42.682;23.322;2023-08-31T05:21:11;4.03;;;1.80;;
71570;SDS011;59407;42.682;23.322;2023-08-31T05:23:38;5.53;;;2.20;;
71570;SDS011;59407;42.682;23.322;2023-08-31T05:26:04;5.20;;;1.60;;
71570;SDS011;59407;42.682;23.322;2023-08-31T05:28:31;6.35;;;1.85;;
71570;SDS011;59407;42.682;23.322;2023-08-31T05:30:57;8.13;;;2.10;;
71570;SDS011;59407;42.682;23.322;2023-08-31T05:33:26;5.95;;;2.00;;
71570;SDS011;59407;42.682;23.322;2023-08-31T05:35:54;3.67;;;1.58;;
71570;SDS011;59407;42.682;23.322;2023-08-31T05:38:20;3.78;;;1.42;;
71570;SDS011;59407;42.682;23.322;2023-08-31T05:40:45;3.40;;;1.60;;
71570;SDS011;59407;42.682;23.322;2023-08-31T05:43:13;4.23;;;1.40;;
71570;SDS011;59407;42.682;23.322;2023-08-31T05:45:39;5.75;;;1.35;;
71570;SDS011;59407;42.682;23.322;2023-08-31T05:48:04;4.17;;;1.73;;
71570;SDS011;59407;42.682;23.322;2023-08-31T05:50:30;4.70;;;1.67;;
71570;SDS011;59407;42.682;23.322;2023-08-31T05:52:56;4.70;;;1.53;;
71570;SDS011;59407;42.682;23.322;2023-08-31T05:55:22;7.97;;;2.30;;
71570;SDS011;59407;42.682;23.322;2023-08-31T05:57:47;7.57;;;1.87;;
71570;SDS011;59407;42.682;23.322;2023-08-31T06:00:13;5.10;;;1.73;;
71570;SDS011;59407;42.682;23.322;2023-08-31T06:02:38;4.80;;;2.10;;
71570;SDS011;59407;42.682;23.322;2023-08-31T06:05:04;4.80;;;2.00;;
71570;SDS011;59407;42.682;23.322;2023-08-31T06:07:30;4.53;;;2.10;;
71570;SDS011;59407;42.682;23.322;2023-08-31T06:09:56;5.65;;;2.00;;
71570;SDS011;59407;42.682;23.322;2023-08-31T06:12:22;4.97;;;2.00;;
71570;SDS011;59407;42.682;23.322;2023-08-31T06:14:47;4.30;;;1.73;;
71570;SDS011;59407;42.682;23.322;2023-08-31T06:17:13;4.33;;;1.70;;
71570;SDS011;59407;42.682;23.322;2023-08-31T06:19:39;5.05;;;1.90;;
71570;SDS011;59407;42.682;23.322;2023-08-31T06:22:06;4.35;;;1.63;;
71570;SDS011;59407;42.682;23.322;2023-08-31T06:24:32;5.78;;;1.88;;
71570;SDS011;59407;42.682;23.322;2023-08-31T06:27:00;6.63;;;1.70;;
71570;SDS011;59407;42.682;23.322;2023-08-31T06:29:28;3.30;;;1.63;;
71570;SDS011;59407;42.682;23.322;2023-08-31T06:31:53;5.00;;;1.90;;
71570;SDS011;59407;42.682;23.322;2023-08-31T06:34:18;5.07;;;1.63;;
71570;SDS011;59407;42.682;23.322;2023-08-31T06:37:00;4.90;;;1.70;;
71570;SDS011;59407;42.682;23.322;2023-08-31T06:39:26;4.70;;;1.83;;
71570;SDS011;59407;42.682;23.322;2023-08-31T06:41:52;5.85;;;2.22;;
71570;SDS011;59407;42.682;23.322;2023-08-31T06:44:17;4.77;;;2.03;;
71570;SDS011;59407;42.682;23.322;2023-08-31T06:46:43;3.50;;;1.30;;
71570;SDS011;59407;42.682;23.322;2023-08-31T06:49:09;8.52;;;2.00;;
71570;SDS011;59407;42.682;23.322;2023-08-31T06:51:36;7.75;;;2.22;;
71570;SDS011;59407;42.682;23.322;2023-08-31T06:54:02;7.35;;;2.63;;
71570;SDS011;59407;42.682;23.322;2023-08-31T06:56:34;4.83;;;2.47;;
71570;SDS011;59407;42.682;23.322;2023-08-31T06:59:00;5.93;;;2.35;;
71570;SDS011;59407;42.682;23.322;2023-08-31T07:01:27;6.15;;;2.20;;
71570;SDS011;59407;42.682;23.322;2023-08-31T07:03:54;4.43;;;1.80;;
71570;SDS011;59407;42.682;23.322;2023-08-31T07:06:22;7.10;;;2.30;;
71570;SDS011;59407;42.682;23.322;2023-08-31T07:08:48;5.93;;;1.90;;
71570;SDS011;59407;42.682;23.322;2023-08-31T07:11:17;4.72;;;2.15;;
71570;SDS011;59407;42.682;23.322;2023-08-31T07:13:45;5.33;;;2.10;;
71570;SDS011;59407;42.682;23.322;2023-08-31T07:16:11;6.80;;;2.40;;
71570;SDS011;59407;42.682;23.322;2023-08-31T07:18:36;7.10;;;2.17;;
71570;SDS011;59407;42.682;23.322;2023-08-31T07:21:03;7.15;;;2.92;;
71570;SDS011;59407;42.682;23.322;2023-08-31T07:23:29;6.85;;;2.20;;
71570;SDS011;59407;42.682;23.322;2023-08-31T07:25:58;5.93;;;1.60;;
71570;SDS011;59407;42.682;23.322;2023-08-31T07:28:25;3.63;;;1.33;;
71570;SDS011;59407;42.682;23.322;2023-08-31T07:31:00;3.97;;;1.67;;
71570;SDS011;59407;42.682;23.322;2023-08-31T07:33:31;3.63;;;1.17;;
71570;SDS011;59407;42.682;23.322;2023-08-31T07:35:57;2.80;;;1.33;;
71570;SDS011;59407;42.682;23.322;2023-08-31T07:38:23;3.33;;;1.27;;
71570;SDS011;59407;42.682;23.322;2023-08-31T07:40:49;5.80;;;1.70;;
71570;SDS011;59407;42.682;23.322;2023-08-31T07:43:14;5.87;;;1.47;;
71570;SDS011;59407;42.682;23.322;2023-08-31T07:45:40;4.33;;;1.20;;
71570;SDS011;59407;42.682;23.322;2023-08-31T07:48:06;3.77;;;1.13;;
71570;SDS011;59407;42.682;23.322;2023-08-31T07:50:36;4.65;;;1.50;;
71570;SDS011;59407;42.682;23.322;2023-08-31T07:53:03;6.57;;;1.47;;
71570;SDS011;59407;42.682;23.322;2023-08-31T07:55:30;5.57;;;1.27;;
71570;SDS011;59407;42.682;23.322;2023-08-31T07:57:56;3.23;;;1.30;;
71570;SDS011;59407;42.682;23.322;2023-08-31T08:00:21;5.05;;;1.10;;
71570;SDS011;59407;42.682;23.322;2023-08-31T08:02:56;4.25;;;0.98;;
71570;SDS011;59407;42.682;23.322;2023-08-31T08:05:21;5.57;;;1.73;;
71570;SDS011;59407;42.682;23.322;2023-08-31T08:07:47;4.77;;;1.40;;
71570;SDS011;59407;42.682;23.322;2023-08-31T08:10:12;3.58;;;1.10;;
71570;SDS011;59407;42.682;23.322;2023-08-31T08:12:40;3.40;;;0.93;;
71570;SDS011;59407;42.682;23.322;2023-08-31T08:15:13;3.17;;;1.10;;
71570;SDS011;59407;42.682;23.322;2023-08-31T08:17:42;4.13;;;1.23;;
71570;SDS011;59407;42.682;23.322;2023-08-31T08:20:09;3.10;;;1.20;;
71570;SDS011;59407;42.682;23.322;2023-08-31T08:22:35;3.67;;;1.02;;
71570;SDS011;59407;42.682;23.322;2023-08-31T08:25:01;3.60;;;2.03;;
71570;SDS011;59407;42.682;23.322;2023-08-31T08:27:28;4.55;;;2.38;;
71570;SDS011;59407;42.682;23.322;2023-08-31T08:29:53;3.60;;;1.60;;
71570;SDS011;59407;42.682;23.322;2023-08-31T08:32:18;3.80;;;1.33;;
71570;SDS011;59407;42.682;23.322;2023-08-31T08:34:50;3.70;;;1.30;;
71570;SDS011;59407;42.682;23.322;2023-08-31T08:37:17;3.97;;;1.30;;
71570;SDS011;59407;42.682;23.322;2023-08-31T08:39:47;6.07;;;1.67;;
71570;SDS011;59407;42.682;23.322;2023-08-31T08:42:41;4.80;;;1.80;;
71570;SDS011;59407;42.682;23.322;2023-08-31T08:45:13;5.28;;;1.88;;
71570;SDS011;59407;42.682;23.322;2023-08-31T08:47:40;5.10;;;1.40;;
71570;SDS011;59407;42.682;23.322;2023-08-31T08:50:07;4.50;;;1.90;;
71570;SDS011;59407;42.682;23.322;2023-08-31T08:52:33;6.20;;;1.80;;
71570;SDS011;59407;42.682;23.322;2023-08-31T08:55:01;6.07;;;2.10;;
71570;SDS011;59407;42.682;23.322;2023-08-31T08:57:28;5.57;;;1.67;;
71570;SDS011;59407;42.682;23.322;2023-08-31T08:59:57;5.33;;;1.80;;
71570;SDS011;59407;42.682;23.322;2023-08-31T09:02:35;6.20;;;2.00;;
71570;SDS011;59407;42.682;23.322;2023-08-31T09:05:01;5.07;;;1.35;;
71570;SDS011;59407;42.682;23.322;2023-08-31T09:07:36;4.97;;;1.27;;
71570;SDS011;59407;42.682;23.322;2023-08-31T09:10:02;5.63;;;1.77;;
71570;SDS011;59407;42.682;23.322;2023-08-31T09:12:29;4.63;;;1.23;;
71570;SDS011;59407;42.682;23.322;2023-08-31T09:17:40;6.20;;;2.00;;
71570;SDS011;59407;42.682;23.322;2023-08-31T09:20:09;4.28;;;1.10;;
71570;SDS011;59407;42.682;23.322;2023-08-31T09:22:35;4.63;;;1.38;;
71570;SDS011;59407;42.682;23.322;2023-08-31T09:25:01;4.77;;;1.40;;
71570;SDS011;59407;42.682;23.322;2023-08-31T09:27:28;5.70;;;1.50;;
71570;SDS011;59407;42.682;23.322;2023-08-31T09:29:56;4.03;;;1.65;;
71570;SDS011;59407;42.682;23.322;2023-08-31T09:32:22;6.73;;;1.73;;
71570;SDS011;59407;42.682;23.322;2023-08-31T09:34:59;3.58;;;1.48;;
71570;SDS011;59407;42.682;23.322;2023-08-31T09:37:28;4.50;;;1.95;;
71570;SDS011;59407;42.682;23.322;2023-08-31T09:39:54;7.65;;;2.28;;
71570;SDS011;59407;42.682;23.322;2023-08-31T09:42:22;5.10;;;1.80;;
71570;SDS011;59407;42.682;23.322;2023-08-31T09:45:02;3.87;;;1.80;;
71570;SDS011;59407;42.682;23.322;2023-08-31T09:47:28;4.15;;;1.80;;
71570;SDS011;59407;42.682;23.322;2023-08-31T09:50:00;4.13;;;1.60;;
71570;SDS011;59407;42.682;23.322;2023-08-31T09:52:26;3.90;;;1.75;;
71570;SDS011;59407;42.682;23.322;2023-08-31T09:54:52;5.20;;;1.75;;
71570;SDS011;59407;42.682;23.322;2023-08-31T09:57:18;5.93;;;1.67;;
71570;SDS011;59407;42.682;23.322;2023-08-31T09:59:45;5.28;;;2.05;;
71570;SDS011;59407;42.682;23.322;2023-08-31T10:02:17;4.90;;;1.75;;
71570;SDS011;59407;42.682;23.322;2023-08-31T10:05:26;4.43;;;1.70;;
71570;SDS011;59407;42.682;23.322;2023-08-31T10:07:51;4.72;;;1.42;;
71570;SDS011;59407;42.682;23.322;2023-08-31T10:10:17;4.85;;;1.83;;
71570;SDS011;59407;42.682;23.322;2023-08-31T10:12:45;3.80;;;1.70;;
71570;SDS011;59407;42.682;23.322;2023-08-31T10:15:12;5.93;;;1.48;;
71570;SDS011;59407;42.682;23.322;2023-08-31T10:17:41;4.55;;;1.70;;
71570;SDS011;59407;42.682;23.322;2023-08-31T10:20:08;6.22;;;2.03;;
71570;SDS011;59407;42.682;23.322;2023-08-31T10:22:37;4.40;;;1.40;;
71570;SDS011;59407;42.682;23.322;2023-08-31T10:25:06;4.93;;;1.80;;
71570;SDS011;59407;42.682;23.322;2023-08-31T10:27:42;5.40;;;1.98;;
71570;SDS011;59407;42.682;23.322;2023-08-31T10:35:40;4.63;;;1.65;;
71570;SDS011;59407;42.682;23.322;2023-08-31T10:43:45;4.17;;;1.53;;
71570;SDS011;59407;42.682;23.322;2023-08-31T10:46:19;5.85;;;1.90;;
71570;SDS011;59407;42.682;23.322;2023-08-31T10:49:16;5.57;;;2.08;;
71570;SDS011;59407;42.682;23.322;2023-08-31T10:51:44;4.75;;;1.90;;
71570;SDS011;59407;42.682;23.322;2023-08-31T10:59:45;3.72;;;1.60;;
71570;SDS011;59407;42.682;23.322;2023-08-31T11:07:34;4.13;;;1.40;;
71570;SDS011;59407;42.682;23.322;2023-08-31T11:12:54;5.03;;;1.70;;
71570;SDS011;59407;42.682;23.322;2023-08-31T11:15:27;5.30;;;1.85;;
71570;SDS011;59407;42.682;23.322;2023-08-31T11:17:55;3.30;;;1.20;;
71570;SDS011;59407;42.682;23.322;2023-08-31T11:20:21;3.83;;;1.30;;
71570;SDS011;59407;42.682;23.322;2023-08-31T11:22:48;3.88;;;1.40;;
71570;SDS011;59407;42.682;23.322;2023-08-31T11:25:16;2.90;;;0.95;;
71570;SDS011;59407;42.682;23.322;2023-08-31T11:27:56;4.80;;;1.83;;
71570;SDS011;59407;42.682;23.322;2023-08-31T11:30:28;4.82;;;1.60;;
71570;SDS011;59407;42.682;23.322;2023-08-31T11:32:58;3.78;;;1.20;;
71570;SDS011;59407;42.682;23.322;2023-08-31T11:35:36;4.22;;;1.25;;
71570;SDS011;59407;42.682;23.322;2023-08-31T11:38:04;4.97;;;1.60;;
71570;SDS011;59407;42.682;23.322;2023-08-31T11:40:33;4.43;;;1.37;;
71570;SDS011;59407;42.682;23.322;2023-08-31T11:43:01;4.90;;;1.52;;
71570;SDS011;59407;42.682;23.322;2023-08-31T11:45:29;4.88;;;1.35;;
71570;SDS011;59407;42.682;23.322;2023-08-31T11:47:55;4.50;;;1.30;;
71570;SDS011;59407;42.682;23.322;2023-08-31T11:50:22;2.87;;;1.03;;
71570;SDS011;59407;42.682;23.322;2023-08-31T11:52:49;3.83;;;1.13;;
71570;SDS011;59407;42.682;23.322;2023-08-31T11:55:18;4.47;;;0.98;;
71570;SDS011;59407;42.682;23.322;2023-08-31T11:57:51;10.27;;;1.60;;
71570;SDS011;59407;42.682;23.322;2023-08-31T12:00:17;3.13;;;1.10;;
71570;SDS011;59407;42.682;23.322;2023-08-31T12:02:44;3.85;;;1.33;;
71570;SDS011;59407;42.682;23.322;2023-08-31T12:05:13;4.00;;;1.05;;
71570;SDS011;59407;42.682;23.322;2023-08-31T12:07:40;3.63;;;1.10;;
71570;SDS011;59407;42.682;23.322;2023-08-31T12:10:07;3.25;;;1.00;;
71570;SDS011;59407;42.682;23.322;2023-08-31T12:12:33;3.27;;;1.07;;
71570;SDS011;59407;42.682;23.322;2023-08-31T12:15:03;3.72;;;1.17;;
71570;SDS011;59407;42.682;23.322;2023-08-31T12:17:31;4.15;;;1.30;;
71570;SDS011;59407;42.682;23.322;2023-08-31T12:20:03;3.55;;;1.02;;
71570;SDS011;59407;42.682;23.322;2023-08-31T12:22:30;4.63;;;1.30;;
71570;SDS011;59407;42.682;23.322;2023-08-31T12:24:56;4.17;;;1.73;;
71570;SDS011;59407;42.682;23.322;2023-08-31T12:27:25;3.30;;;1.00;;
71570;SDS011;59407;42.682;23.322;2023-08-31T12:29:52;4.65;;;1.20;;
71570;SDS011;59407;42.682;23.322;2023-08-31T12:32:18;3.50;;;1.33;;
71570;SDS011;59407;42.682;23.322;2023-08-31T12:34:44;3.60;;;1.17;;
71570;SDS011;59407;42.682;23.322;2023-08-31T12:37:10;3.90;;;1.42;;
71570;SDS011;59407;42.682;23.322;2023-08-31T12:39:36;3.27;;;1.00;;
71570;SDS011;59407;42.682;23.322;2023-08-31T12:42:03;2.75;;;0.88;;
71570;SDS011;59407;42.682;23.322;2023-08-31T12:44:29;6.88;;;1.52;;
71570;SDS011;59407;42.682;23.322;2023-08-31T12:46:55;5.40;;;1.87;;
71570;SDS011;59407;42.682;23.322;2023-08-31T12:49:21;3.75;;;0.90;;
71570;SDS011;59407;42.682;23.322;2023-08-31T12:51:48;3.90;;;1.50;;
71570;SDS011;59407;42.682;23.322;2023-08-31T12:54:17;4.28;;;0.95;;
71570;SDS011;59407;42.682;23.322;2023-08-31T12:56:43;3.80;;;1.10;;
71570;SDS011;59407;42.682;23.322;2023-08-31T12:59:09;4.38;;;1.10;;
71570;SDS011;59407;42.682;23.322;2023-08-31T13:01:36;4.50;;;1.70;;
71570;SDS011;59407;42.682;23.322;2023-08-31T13:04:02;3.63;;;1.20;;
71570;SDS011;59407;42.682;23.322;2023-08-31T13:06:28;3.88;;;0.85;;
71570;SDS011;59407;42.682;23.322;2023-08-31T13:08:54;4.15;;;0.90;;
71570;SDS011;59407;42.682;23.322;2023-08-31T13:11:19;3.40;;;1.00;;
71570;SDS011;59407;42.682;23.322;2023-08-31T13:13:48;5.45;;;1.45;;
71570;SDS011;59407;42.682;23.322;2023-08-31T13:16:21;5.47;;;1.40;;
71570;SDS011;59407;42.682;23.322;2023-08-31T13:18:49;3.70;;;1.00;;
71570;SDS011;59407;42.682;23.322;2023-08-31T13:21:15;4.47;;;1.60;;
71570;SDS011;59407;42.682;23.322;2023-08-31T13:23:42;4.35;;;1.30;;
71570;SDS011;59407;42.682;23.322;2023-08-31T13:26:09;3.78;;;1.25;;
71570;SDS011;59407;42.682;23.322;2023-08-31T13:28:34;4.87;;;1.20;;
71570;SDS011;59407;42.682;23.322;2023-08-31T13:31:00;4.35;;;1.33;;
71570;SDS011;59407;42.682;23.322;2023-08-31T13:33:28;3.13;;;0.90;;
71570;SDS011;59407;42.682;23.322;2023-08-31T13:35:56;3.58;;;1.30;;
71570;SDS011;59407;42.682;23.322;2023-08-31T13:38:24;2.90;;;0.90;;
71570;SDS011;59407;42.682;23.322;2023-08-31T13:40:54;3.20;;;1.15;;
71570;SDS011;59407;42.682;23.322;2023-08-31T13:43:40;4.43;;;1.00;;
71570;SDS011;59407;42.682;23.322;2023-08-31T13:46:08;3.13;;;1.00;;
71570;SDS011;59407;42.682;23.322;2023-08-31T13:48:34;3.97;;;1.20;;
71570;SDS011;59407;42.682;23.322;2023-08-31T13:51:00;4.50;;;2.47;;
71570;SDS011;59407;42.682;23.322;2023-08-31T13:53:27;2.78;;;0.88;;
71570;SDS011;59407;42.682;23.322;2023-08-31T13:55:54;3.60;;;0.98;;
71570;SDS011;59407;42.682;23.322;2023-08-31T13:58:20;2.30;;;0.77;;
71570;SDS011;59407;42.682;23.322;2023-08-31T14:00:46;3.70;;;0.80;;
71570;SDS011;59407;42.682;23.322;2023-08-31T14:03:12;3.28;;;1.10;;
71570;SDS011;59407;42.682;23.322;2023-08-31T14:05:37;4.93;;;1.40;;
71570;SDS011;59407;42.682;23.322;2023-08-31T14:08:03;3.43;;;1.10;;
71570;SDS011;59407;42.682;23.322;2023-08-31T14:10:30;4.80;;;1.27;;
71570;SDS011;59407;42.682;23.322;2023-08-31T14:12:57;5.63;;;1.10;;
71570;SDS011;59407;42.682;23.322;2023-08-31T14:15:25;3.70;;;1.30;;
71570;SDS011;59407;42.682;23.322;2023-08-31T14:17:52;5.07;;;1.00;;
71570;SDS011;59407;42.682;23.322;2023-08-31T14:20:21;4.10;;;0.93;;
71570;SDS011;59407;42.682;23.322;2023-08-31T14:22:47;2.45;;;0.60;;
71570;SDS011;59407;42.682;23.322;2023-08-31T14:25:13;2.77;;;0.90;;
71570;SDS011;59407;42.682;23.322;2023-08-31T14:27:39;5.28;;;1.25;;
71570;SDS011;59407;42.682;23.322;2023-08-31T14:30:05;3.13;;;0.88;;
71570;SDS011;59407;42.682;23.322;2023-08-31T14:32:31;3.20;;;1.13;;
71570;SDS011;59407;42.682;23.322;2023-08-31T14:34:57;5.53;;;1.03;;
71570;SDS011;59407;42.682;23.322;2023-08-31T14:37:23;5.90;;;1.30;;
71570;SDS011;59407;42.682;23.322;2023-08-31T14:39:48;5.78;;;1.60;;
71570;SDS011;59407;42.682;23.322;2023-08-31T14:42:14;4.97;;;1.20;;
71570;SDS011;59407;42.682;23.322;2023-08-31T14:44:41;4.18;;;1.20;;
71570;SDS011;59407;42.682;23.322;2023-08-31T14:47:07;3.00;;;1.00;;
71570;SDS011;59407;42.682;23.322;2023-08-31T14:49:32;4.18;;;1.08;;
71570;SDS011;59407;42.682;23.322;2023-08-31T14:51:58;3.53;;;1.30;;
71570;SDS011;59407;42.682;23.322;2023-08-31T14:54:29;4.43;;;1.38;;
71570;SDS011;59407;42.682;23.322;2023-08-31T14:56:55;4.20;;;1.53;;
71570;SDS011;59407;42.682;23.322;2023-08-31T14:59:20;4.00;;;1.25;;
71570;SDS011;59407;42.682;23.322;2023-08-31T15:01:46;4.47;;;1.10;;
71570;SDS011;59407;42.682;23.322;2023-08-31T15:04:11;3.97;;;1.37;;
71570;SDS011;59407;42.682;23.322;2023-08-31T15:06:36;5.20;;;1.10;;
71570;SDS011;59407;42.682;23.322;2023-08-31T15:09:02;5.03;;;1.50;;
71570;SDS011;59407;42.682;23.322;2023-08-31T15:11:28;6.27;;;1.70;;